Annandale, NJ

6:49 AM EDT on August 31, 2015 (GMT -0400)
Regional Road | | Change Station
CLOSE
Current Station
Personal Weather Station
Location: Annandale, NJ
Elevation: 387 ft
Nearby Weather Stations

Elev 387 ft 40.63 °N, 74.89 °W | Updated 4 minutes ago

Mostly Cloudy
Mostly Cloudy
70.4 °F
Feels Like 70.4 °F
N
0.0
Wind Variable Wind from NW
Gusts 4.0 mph

Today
High -- | Low -- °F
--% Chance of Precip.
Yesterday
High -- | Low -- °F
Precip. -- in
6:25 AM 7:33 PM
Waning Gibbous, 96% visible
Pressure 30.01 in
Visibility 6.0 miles
Clouds Clear
Dew Point 68 °F
Humidity 93%
Rainfall in
Snow Depth Not available.
UV 0 out of 12
Pollen 9.40 out of 12
Air Quality Not available.
Flu Activity Not available.
METAR KSMQ 310953Z AUTO 00000KT 6SM BR CLR 21/19 A3002 RMK AO2 SLP162 T02060189
Pressure 30.01 in
Visibility 6.0 miles
Clouds Clear
Dew Point 68 °F
Humidity 93%
Rainfall in
Snow Depth Not available.
UV 0 out of 12
Pollen 9.40 out of 12
Air Quality Not available.
Flu Activity Not available.
METAR KSMQ 310953Z AUTO 00000KT 6SM BR CLR 21/19 A3002 RMK AO2 SLP162 T02060189

10-Day Weather Forecast

×

Almanac

Astronomy

Aug. 31, 2015 Rise Set
Actual Time
Civil Twilight
Nautical Twilight
Astronomical Twilight
Moon
Length of Visible Light
Length of Day
Tomorrow will be .
, % of the Moon is Illuminated

Today's Extremes

State Highs State Lows

Community

WunderPhotos

Upload Photos

1,851,227 photos uploaded!

WunderBlogs® & News

Nearby

Air Quality

  Air Quality AQ Index Pollutant
Not available.

Snow Depth

Station Depth Elevation

Earthquake Activity

City Distance Mag. Time & Date
Minimum magnitude displayed is 2.5.

Coastal Water Temperatures

Place Temperature

Stations

Nearby Weather Stations

Station Location Temp. Windchill Dew Point Humidity Wind Precip. Elev Updated Type